Humboldt, Minnesota
Current Conditions -  °F | °C
As of 9:13 PM on Tuesday 25 Nov 2014 (Local Time) from KHCO Reporting Station
Light Snow Light Snow  
Wind Chill: -5°   Ceiling: 1900
Heat Index: 10°   Visibility: 3mi
Dew Point:   Wind: 13mph
Humidity: 85%   Direction: 360°N
Pressure: 30.11"   Gusts: 20mph
Location:  48.92°N, 97.09°W
Report Text: KHCO 260313Z AUTO 36011G17KT 3SM -SN SCT013 BKN019 OVC037 M12/M14 A3011 RMK AO2
Loading
Personal Weather Stations






























Interactive Weather Map New forecast layout! Learn more

10-Day Weather Forecast

Advertisements
Track Severe Weather on mobile